createdAt,value
2018-07-22T00:01:30.851Z,14.20
2018-07-22T00:03:58.408Z,9.75
2018-07-22T00:06:25.948Z,8.03
2018-07-22T00:08:53.856Z,12.35
2018-07-22T00:11:21.372Z,8.07
2018-07-22T00:13:48.884Z,9.33
2018-07-22T00:16:16.511Z,9.57
2018-07-22T00:18:44.031Z,9.63
2018-07-22T00:21:11.544Z,12.53
2018-07-22T00:23:39.076Z,14.13
2018-07-22T00:26:06.585Z,10.07
2018-07-22T00:28:34.103Z,12.47
2018-07-22T00:31:01.607Z,11.43
2018-07-22T00:33:29.141Z,11.60
2018-07-22T00:35:56.641Z,11.33
2018-07-22T00:38:24.147Z,10.50
2018-07-22T00:40:51.656Z,12.63
2018-07-22T00:43:19.180Z,10.35
2018-07-22T00:45:46.701Z,11.97
2018-07-22T00:48:14.227Z,11.57
2018-07-22T00:50:41.748Z,11.90
2018-07-22T00:53:09.260Z,12.37
2018-07-22T00:55:36.776Z,12.23
2018-07-22T00:58:04.308Z,10.90
2018-07-22T01:00:31.820Z,15.07
2018-07-22T01:02:59.431Z,12.15
2018-07-22T01:05:27.206Z,11.57
2018-07-22T01:07:54.751Z,11.73
2018-07-22T01:10:22.272Z,12.90
2018-07-22T01:12:49.816Z,12.85
2018-07-22T01:15:17.351Z,12.82
2018-07-22T01:17:44.900Z,11.95
2018-07-22T01:20:12.430Z,12.25
2018-07-22T01:22:39.965Z,12.40
2018-07-22T01:25:07.679Z,12.73
2018-07-22T01:27:35.215Z,13.58
2018-07-22T01:30:03.866Z,13.08
2018-07-22T01:32:31.391Z,12.73
2018-07-22T01:34:58.937Z,13.05
2018-07-22T01:37:26.482Z,12.07
2018-07-22T01:39:54.007Z,11.70
2018-07-22T01:42:21.540Z,12.10
2018-07-22T01:44:49.072Z,11.33
2018-07-22T01:47:16.601Z,16.48
2018-07-22T01:49:44.127Z,12.30
2018-07-22T01:52:11.651Z,12.73
2018-07-22T01:54:39.204Z,11.68
2018-07-22T01:57:06.740Z,11.68
2018-07-22T01:59:34.291Z,10.43
2018-07-22T02:02:01.837Z,11.75
2018-07-22T02:04:29.383Z,11.95
2018-07-22T02:06:56.921Z,13.08
2018-07-22T02:09:24.441Z,11.80
2018-07-22T02:11:51.993Z,11.40
2018-07-22T02:14:20.848Z,13.70
2018-07-22T02:16:48.379Z,13.15
2018-07-22T02:19:15.913Z,11.75
2018-07-22T02:21:43.456Z,12.45
2018-07-22T02:24:10.983Z,13.83
2018-07-22T02:26:38.508Z,13.03
2018-07-22T02:29:06.093Z,13.15
2018-07-22T02:31:33.639Z,16.27
2018-07-22T02:34:01.172Z,12.82
2018-07-22T02:36:28.718Z,13.65
2018-07-22T02:38:56.244Z,15.85
2018-07-22T02:41:23.792Z,13.13
2018-07-22T02:43:51.323Z,13.70
2018-07-22T02:46:18.832Z,14.45
2018-07-22T02:48:46.356Z,14.07
2018-07-22T02:51:13.913Z,13.67
2018-07-22T02:53:41.440Z,13.80
2018-07-22T02:56:08.995Z,13.27
2018-07-22T02:58:36.527Z,14.73
2018-07-22T03:01:04.096Z,14.13
2018-07-22T03:06:45.256Z,14.23
2018-07-22T03:09:12.796Z,16.32
2018-07-22T03:11:40.328Z,13.80
2018-07-22T03:14:07.840Z,13.50
2018-07-22T03:16:35.353Z,14.43
2018-07-22T03:19:02.879Z,15.40
2018-07-22T03:21:30.384Z,17.92
2018-07-22T03:23:58.180Z,16.90
2018-07-22T03:26:25.852Z,14.65
2018-07-22T03:28:53.599Z,14.60
2018-07-22T03:31:21.112Z,15.70
2018-07-22T03:33:48.634Z,16.17
2018-07-22T03:36:16.139Z,17.12
2018-07-22T03:38:43.649Z,16.48
2018-07-22T03:41:11.155Z,17.30
2018-07-22T03:43:38.692Z,16.67
2018-07-22T03:46:06.421Z,15.97
2018-07-22T03:48:33.963Z,16.45
2018-07-22T03:51:01.480Z,16.42
2018-07-22T03:53:29.018Z,16.77
2018-07-22T03:55:56.659Z,18.37
2018-07-22T03:58:24.172Z,16.07
2018-07-22T04:00:51.684Z,17.70
2018-07-22T04:03:19.209Z,16.73
2018-07-22T04:05:46.724Z,17.87
2018-07-22T04:08:14.244Z,17.57
2018-07-22T04:10:41.771Z,16.70
2018-07-22T04:13:09.307Z,17.25
2018-07-22T04:15:36.951Z,16.23
2018-07-22T04:18:04.463Z,18.45
2018-07-22T04:20:31.964Z,19.25
2018-07-22T04:22:59.484Z,18.77
2018-07-22T04:25:26.998Z,21.23
2018-07-22T04:27:54.507Z,19.82
2018-07-22T04:30:22.017Z,20.10
2018-07-22T04:32:49.561Z,20.68
2018-07-22T04:35:17.069Z,20.65
2018-07-22T04:37:44.567Z,20.32
2018-07-22T04:40:12.092Z,20.05
2018-07-22T04:42:39.597Z,18.95
2018-07-22T04:45:07.560Z,19.75
2018-07-22T04:47:35.075Z,18.42
2018-07-22T04:50:02.600Z,19.62
2018-07-22T04:52:30.117Z,19.55
2018-07-22T04:54:57.640Z,20.32
2018-07-22T04:57:25.148Z,19.98
2018-07-22T04:59:52.665Z,21.12
2018-07-22T05:02:20.179Z,19.35
2018-07-22T05:04:47.695Z,20.97
2018-07-22T05:07:15.199Z,20.23
2018-07-22T05:09:42.712Z,19.62
2018-07-22T05:12:10.252Z,20.08
2018-07-22T05:14:37.796Z,19.20
2018-07-22T05:17:05.327Z,19.67
2018-07-22T05:19:32.876Z,21.87
2018-07-22T05:22:00.396Z,22.45
2018-07-22T05:24:27.932Z,21.17
2018-07-22T05:26:55.458Z,20.92
2018-07-22T05:29:23.001Z,20.97
2018-07-22T05:31:50.537Z,20.20
2018-07-22T05:34:18.086Z,20.72
2018-07-22T05:36:45.619Z,21.33
2018-07-22T05:39:13.161Z,20.72
2018-07-22T05:41:41.340Z,21.02
2018-07-22T05:44:08.897Z,20.12
2018-07-22T05:46:36.435Z,21.02
2018-07-22T05:49:04.423Z,20.48
2018-07-22T05:51:32.317Z,22.65
2018-07-22T05:53:59.902Z,20.48
2018-07-22T05:56:27.423Z,20.55
2018-07-22T05:58:54.955Z,19.55
2018-07-22T06:01:22.519Z,20.50
2018-07-22T06:03:50.068Z,22.10
2018-07-22T06:06:17.657Z,20.30
2018-07-22T06:08:45.195Z,19.90
2018-07-22T06:11:12.744Z,21.52
2018-07-22T06:13:40.436Z,19.62
2018-07-22T06:16:08.015Z,19.37
2018-07-22T06:18:35.547Z,20.30
2018-07-22T06:21:03.092Z,19.55
2018-07-22T06:23:30.700Z,24.02
2018-07-22T06:25:58.188Z,19.35
2018-07-22T06:28:25.720Z,19.85
2018-07-22T06:30:53.260Z,20.12
2018-07-22T06:33:20.840Z,20.10
2018-07-22T06:35:48.381Z,21.70
2018-07-22T06:38:15.924Z,20.08
2018-07-22T06:40:43.471Z,18.25
2018-07-22T06:43:11.000Z,20.45
2018-07-22T06:45:38.547Z,18.15
2018-07-22T06:48:06.076Z,17.98
2018-07-22T06:50:33.642Z,17.82
2018-07-22T06:53:01.176Z,17.60
2018-07-22T06:55:28.708Z,17.25
2018-07-22T06:57:56.256Z,18.42
2018-07-22T07:00:23.796Z,17.45
2018-07-22T07:02:51.344Z,17.10
2018-07-22T07:05:18.932Z,17.80
2018-07-22T07:07:46.495Z,18.02
2018-07-22T07:10:14.039Z,18.27
2018-07-22T07:12:41.566Z,16.60
2018-07-22T07:15:09.091Z,16.90
2018-07-22T07:17:36.702Z,15.28
2018-07-22T07:20:04.417Z,15.40
2018-07-22T07:22:31.941Z,15.30
2018-07-22T07:24:59.452Z,16.20
2018-07-22T07:27:26.988Z,15.75
2018-07-22T07:29:54.512Z,13.93
2018-07-22T07:32:22.043Z,13.35
2018-07-22T07:34:49.553Z,13.60
2018-07-22T07:37:17.065Z,12.60
2018-07-22T07:39:44.576Z,11.48
2018-07-22T07:42:12.145Z,11.50
2018-07-22T07:44:39.622Z,10.65
2018-07-22T07:47:07.144Z,13.18
2018-07-22T07:49:34.661Z,11.68
2018-07-22T07:52:02.179Z,10.48
2018-07-22T07:54:29.695Z,10.95
2018-07-22T07:56:57.221Z,11.05
2018-07-22T07:59:24.793Z,8.53
2018-07-22T08:01:52.309Z,8.68
2018-07-22T08:04:19.835Z,8.55
2018-07-22T08:06:47.347Z,8.73
2018-07-22T08:09:14.865Z,9.68
2018-07-22T08:11:42.464Z,10.13
2018-07-22T08:14:09.984Z,8.58
2018-07-22T08:16:37.516Z,8.78
2018-07-22T08:19:05.250Z,8.30
2018-07-22T08:21:32.804Z,8.55
2018-07-22T08:24:00.300Z,8.58
2018-07-22T08:26:27.844Z,8.75
2018-07-22T08:29:32.468Z,9.20
2018-07-22T08:32:00.779Z,7.75
2018-07-22T08:34:28.363Z,8.73
2018-07-22T08:36:55.948Z,8.48
2018-07-22T08:39:25.409Z,9.00
2018-07-22T08:41:53.664Z,8.90
2018-07-22T08:44:21.209Z,7.40
2018-07-22T08:46:48.744Z,8.15
2018-07-22T08:49:16.317Z,9.53
2018-07-22T08:51:43.881Z,9.23
2018-07-22T08:54:11.529Z,9.65
2018-07-22T08:56:39.124Z,7.72
2018-07-22T08:59:06.673Z,7.47
2018-07-22T09:01:34.203Z,9.90
2018-07-22T09:04:01.764Z,7.80
2018-07-22T09:06:29.580Z,8.05
2018-07-22T09:08:57.103Z,8.00
2018-07-22T09:11:25.212Z,10.70
2018-07-22T09:14:24.684Z,7.58
2018-07-22T09:16:52.196Z,7.65
2018-07-22T09:19:19.769Z,7.70
2018-07-22T09:21:47.289Z,7.72
2018-07-22T09:24:14.794Z,7.47
2018-07-22T09:26:42.307Z,15.05
2018-07-22T09:29:09.819Z,7.75
2018-07-22T09:31:37.340Z,9.30
2018-07-22T09:34:04.861Z,7.28
2018-07-22T09:36:32.498Z,7.92
2018-07-22T09:38:59.912Z,7.55
2018-07-22T09:41:27.435Z,7.30
2018-07-22T09:43:54.950Z,9.88
2018-07-22T09:46:22.488Z,7.47
2018-07-22T09:48:49.995Z,6.85
2018-07-22T09:51:17.512Z,7.42
2018-07-22T09:53:45.070Z,7.17
2018-07-22T09:56:12.551Z,6.97
2018-07-22T09:58:40.056Z,7.37
2018-07-22T10:01:13.012Z,7.35
2018-07-22T10:03:40.534Z,8.25
2018-07-22T10:06:08.043Z,8.03
2018-07-22T10:08:35.543Z,7.62
2018-07-22T10:11:03.150Z,7.42
2018-07-22T10:13:30.679Z,7.85
2018-07-22T10:15:58.295Z,7.78
2018-07-22T10:18:25.813Z,8.40
2018-07-22T10:20:53.355Z,8.83
2018-07-22T10:23:20.975Z,8.90
2018-07-22T10:25:48.491Z,8.25
2018-07-22T10:28:16.029Z,9.60
2018-07-22T10:30:43.571Z,7.95
2018-07-22T10:33:11.108Z,7.78
2018-07-22T10:35:38.652Z,8.45
2018-07-22T10:38:06.196Z,7.95
2018-07-22T10:40:33.732Z,7.70
2018-07-22T10:43:01.279Z,8.08
2018-07-22T10:45:28.888Z,6.85
2018-07-22T10:47:56.427Z,8.75
2018-07-22T10:50:23.984Z,8.15
2018-07-22T10:52:51.531Z,8.95
2018-07-22T10:55:19.138Z,8.83
2018-07-22T10:57:46.693Z,10.00
2018-07-22T11:00:14.235Z,7.60
2018-07-22T11:02:41.800Z,8.65
2018-07-22T11:05:09.736Z,7.95
2018-07-22T11:07:37.283Z,11.03
2018-07-22T11:10:05.372Z,8.18
2018-07-22T11:12:32.895Z,8.30
2018-07-22T11:15:00.408Z,7.90
2018-07-22T11:17:27.935Z,7.53
2018-07-22T11:19:55.430Z,8.08
2018-07-22T11:22:22.944Z,7.60
2018-07-22T11:24:50.450Z,7.95
2018-07-22T11:27:24.640Z,8.38
2018-07-22T11:29:52.161Z,9.63
2018-07-22T11:32:29.900Z,7.80
2018-07-22T11:34:57.403Z,7.92
2018-07-22T11:37:24.927Z,7.58
2018-07-22T11:39:52.435Z,8.03
2018-07-22T11:42:19.985Z,8.53
2018-07-22T11:44:47.496Z,8.03
2018-07-22T11:47:15.016Z,8.48
2018-07-22T11:49:42.516Z,8.85
2018-07-22T11:52:13.355Z,8.68
2018-07-22T11:54:40.935Z,7.70
2018-07-22T11:57:08.456Z,10.88
2018-07-22T11:59:35.972Z,8.08
2018-07-22T12:05:14.060Z,8.68
2018-07-22T12:07:41.595Z,8.00
2018-07-22T12:10:09.099Z,8.85
2018-07-22T12:12:36.667Z,8.13
2018-07-22T12:15:25.259Z,7.30
2018-07-22T12:17:52.864Z,7.92
2018-07-22T12:20:20.409Z,9.93
2018-07-22T12:22:47.928Z,8.65
2018-07-22T12:25:15.447Z,8.30
2018-07-22T12:27:42.995Z,8.13
2018-07-22T12:30:10.521Z,7.92
2018-07-22T12:32:38.023Z,7.97
2018-07-22T12:35:05.744Z,9.88
2018-07-22T12:37:33.253Z,9.73
2018-07-22T12:40:00.769Z,9.10
2018-07-22T12:42:28.280Z,7.85
2018-07-22T12:44:55.793Z,9.03
2018-07-22T12:47:23.302Z,7.90
2018-07-22T12:49:50.819Z,8.68
2018-07-22T12:52:18.331Z,9.13
2018-07-22T12:54:45.953Z,8.28
2018-07-22T12:57:13.464Z,8.38
2018-07-22T12:59:40.974Z,8.83
2018-07-22T13:02:08.483Z,8.78
2018-07-22T13:04:36.005Z,8.03
2018-07-22T13:07:03.562Z,8.23
2018-07-22T13:09:31.084Z,9.63
2018-07-22T13:11:58.636Z,8.15
2018-07-22T13:14:26.149Z,8.38
2018-07-22T13:16:53.662Z,8.78
2018-07-22T13:19:21.184Z,8.55
2018-07-22T13:21:48.680Z,9.80
2018-07-22T13:24:16.199Z,7.85
2018-07-22T13:26:43.736Z,10.00
2018-07-22T13:29:11.248Z,9.38
2018-07-22T13:31:38.765Z,8.45
2018-07-22T13:34:06.289Z,8.85
2018-07-22T13:36:33.815Z,8.73
2018-07-22T13:39:01.346Z,8.83
2018-07-22T13:41:28.868Z,8.63
2018-07-22T13:43:56.380Z,8.93
2018-07-22T13:46:23.892Z,8.30
2018-07-22T13:48:51.404Z,9.88
2018-07-22T13:51:18.928Z,8.28
2018-07-22T13:53:46.439Z,8.43
2018-07-22T13:56:13.955Z,8.65
2018-07-22T13:58:41.486Z,8.38
2018-07-22T14:01:09.011Z,8.30
2018-07-22T14:03:36.540Z,8.93
2018-07-22T14:06:04.063Z,7.83
2018-07-22T14:08:31.568Z,10.53
2018-07-22T14:10:59.088Z,8.58
2018-07-22T14:13:26.599Z,10.10
2018-07-22T14:15:54.113Z,9.48
2018-07-22T14:18:21.631Z,8.58
2018-07-22T14:20:49.154Z,9.38
2018-07-22T14:23:16.660Z,9.68
2018-07-22T14:25:44.179Z,8.98
2018-07-22T14:28:11.718Z,10.70
2018-07-22T14:30:39.216Z,9.28
2018-07-22T14:33:06.723Z,9.05
2018-07-22T14:35:34.315Z,9.88
2018-07-22T14:38:01.829Z,10.05
2018-07-22T14:40:29.359Z,10.05
2018-07-22T14:42:56.875Z,10.35
2018-07-22T14:45:24.385Z,9.55
2018-07-22T14:47:51.899Z,9.85
2018-07-22T14:50:19.408Z,9.98
2018-07-22T14:52:46.925Z,9.98
2018-07-22T14:55:14.439Z,10.53
2018-07-22T14:57:41.949Z,10.58
2018-07-22T15:00:09.455Z,10.63
2018-07-22T15:02:37.008Z,11.48
2018-07-22T15:05:05.007Z,11.12
2018-07-22T15:07:32.524Z,10.55
2018-07-22T15:10:00.019Z,12.45
2018-07-22T15:12:27.572Z,11.75
2018-07-22T15:14:55.100Z,11.12
2018-07-22T15:17:22.625Z,10.35
2018-07-22T15:19:50.188Z,10.75
2018-07-22T15:22:17.725Z,10.50
2018-07-22T15:24:45.319Z,11.12
2018-07-22T15:27:12.859Z,10.80
2018-07-22T15:29:40.381Z,10.80
2018-07-22T15:32:07.924Z,9.65
2018-07-22T15:34:35.439Z,10.32
2018-07-22T15:37:02.985Z,10.13
2018-07-22T15:39:30.512Z,11.12
2018-07-22T15:41:58.072Z,10.70
2018-07-22T15:44:25.623Z,14.53
2018-07-22T15:46:53.180Z,10.53
2018-07-22T15:49:20.711Z,9.75
2018-07-22T15:51:48.247Z,10.48
2018-07-22T15:54:15.782Z,10.18
2018-07-22T15:56:43.326Z,10.15
2018-07-22T15:59:10.872Z,9.68
2018-07-22T16:01:38.428Z,9.93
2018-07-22T16:04:06.237Z,10.20
2018-07-22T16:06:33.771Z,9.73
2018-07-22T16:09:01.316Z,10.08
2018-07-22T16:11:28.856Z,12.60
2018-07-22T16:13:56.383Z,10.55
2018-07-22T16:16:23.875Z,12.50
2018-07-22T16:18:51.375Z,11.43
2018-07-22T16:21:18.891Z,9.80
2018-07-22T16:23:46.405Z,9.70
2018-07-22T16:26:41.775Z,9.63
2018-07-22T16:29:09.288Z,9.55
2018-07-22T16:31:36.797Z,11.12
2018-07-22T16:34:04.324Z,9.28
2018-07-22T16:36:31.837Z,13.95
2018-07-22T16:38:59.428Z,9.05
2018-07-22T16:41:26.941Z,13.48
2018-07-22T16:43:54.484Z,9.58
2018-07-22T16:46:21.983Z,9.28
2018-07-22T16:48:49.505Z,9.35
2018-07-22T16:51:17.008Z,9.23
2018-07-22T16:53:44.541Z,10.25
2018-07-22T16:56:12.072Z,10.65
2018-07-22T16:58:39.588Z,10.40
2018-07-22T17:01:07.145Z,10.88
2018-07-22T17:03:34.627Z,14.25
2018-07-22T17:06:02.144Z,10.48
2018-07-22T17:08:29.648Z,9.60
2018-07-22T17:10:57.160Z,9.93
2018-07-22T17:13:24.680Z,10.10
2018-07-22T17:15:52.612Z,10.55
2018-07-22T17:18:20.132Z,9.55
2018-07-22T17:20:47.676Z,10.30
2018-07-22T17:23:15.187Z,15.30
2018-07-22T17:25:42.699Z,12.05
2018-07-22T17:28:10.228Z,13.03
2018-07-22T17:30:37.744Z,10.40
2018-07-22T17:33:05.300Z,10.63
2018-07-22T17:35:32.840Z,9.75
2018-07-22T17:38:00.341Z,9.50
2018-07-22T17:40:27.860Z,9.23
2018-07-22T17:42:55.367Z,9.68
2018-07-22T17:45:22.892Z,11.75
2018-07-22T17:47:50.400Z,9.45
2018-07-22T17:50:17.937Z,8.93
2018-07-22T17:52:45.445Z,9.98
2018-07-22T17:55:12.968Z,10.50
2018-07-22T17:57:40.489Z,10.88
2018-07-22T18:00:08.400Z,10.45
2018-07-22T18:02:37.192Z,11.70
2018-07-22T18:05:04.785Z,10.48
2018-07-22T18:07:32.300Z,11.10
2018-07-22T18:09:59.825Z,11.22
2018-07-22T18:12:27.369Z,13.00
2018-07-22T18:14:54.905Z,11.08
2018-07-22T18:17:22.447Z,9.70
2018-07-22T18:19:50.123Z,11.03
2018-07-22T18:22:17.528Z,9.73
2018-07-22T18:24:45.044Z,9.95
2018-07-22T18:27:12.576Z,9.68
2018-07-22T18:29:40.171Z,9.33
2018-07-22T18:32:07.736Z,9.75
2018-07-22T18:34:35.261Z,10.08
2018-07-22T18:37:02.888Z,10.43
2018-07-22T18:45:55.373Z,9.93
2018-07-22T18:48:22.976Z,10.60
2018-07-22T18:50:50.502Z,10.03
2018-07-22T18:53:18.021Z,10.20
2018-07-22T18:55:45.575Z,9.93
2018-07-22T18:58:13.104Z,11.90
2018-07-22T19:00:40.631Z,9.78
2018-07-22T19:03:08.181Z,9.28
2018-07-22T19:08:50.329Z,11.50
2018-07-22T19:11:17.859Z,10.98
2018-07-22T19:13:45.383Z,12.20
2018-07-22T19:16:12.908Z,11.35
2018-07-22T19:18:40.424Z,10.13
2018-07-22T19:21:07.956Z,12.53
2018-07-22T19:23:35.493Z,10.13
2018-07-22T19:26:03.037Z,10.48
2018-07-22T19:28:30.553Z,9.98
2018-07-22T19:30:58.064Z,9.90
2018-07-22T19:33:25.580Z,10.78
2018-07-22T19:35:53.079Z,9.78
2018-07-22T19:38:20.588Z,9.95
2018-07-22T19:40:48.111Z,12.37
2018-07-22T19:43:33.484Z,11.00
2018-07-22T19:46:00.989Z,10.28
2018-07-22T19:48:28.519Z,9.58
2018-07-22T19:50:56.028Z,10.90
2018-07-22T19:53:23.536Z,10.40
2018-07-22T19:55:51.031Z,9.85
2018-07-22T19:58:18.563Z,10.48
2018-07-22T20:00:46.140Z,12.33
2018-07-22T20:03:13.583Z,9.30
2018-07-22T20:05:41.097Z,10.55
2018-07-22T20:08:08.615Z,13.38
2018-07-22T20:10:36.128Z,10.10
2018-07-22T20:13:03.702Z,9.95
2018-07-22T20:15:31.233Z,9.78
2018-07-22T20:17:58.769Z,11.88
2018-07-22T20:20:26.308Z,11.12
2018-07-22T20:22:53.828Z,10.50
2018-07-22T20:25:21.340Z,10.58
2018-07-22T20:27:48.872Z,12.55
2018-07-22T20:30:16.408Z,11.30
2018-07-22T20:32:43.948Z,10.55
2018-07-22T20:35:11.480Z,11.18
2018-07-22T20:37:39.012Z,9.90
2018-07-22T20:40:06.566Z,10.75
2018-07-22T20:42:34.124Z,11.05
2018-07-22T20:45:01.662Z,11.33
2018-07-22T20:47:29.180Z,11.48
2018-07-22T20:49:56.746Z,10.13
2018-07-22T20:52:24.275Z,10.58
2018-07-22T20:54:51.803Z,11.35
2018-07-22T20:57:19.319Z,10.70
2018-07-22T20:59:46.856Z,11.05
2018-07-22T21:02:14.395Z,10.98
2018-07-22T21:04:41.977Z,11.83
2018-07-22T21:10:31.420Z,10.13
2018-07-22T21:13:26.655Z,10.63
2018-07-22T21:15:54.420Z,11.00
2018-07-22T21:18:21.948Z,10.08
2018-07-22T21:20:49.466Z,9.43
2018-07-22T21:23:16.984Z,10.18
2018-07-22T21:25:44.495Z,10.75
2018-07-22T21:28:12.012Z,10.05
2018-07-22T21:30:39.535Z,11.12
2018-07-22T21:33:07.043Z,12.68
2018-07-22T21:35:34.555Z,11.93
2018-07-22T21:38:02.059Z,12.05
2018-07-22T21:40:29.592Z,9.55
2018-07-22T21:42:57.091Z,11.28
2018-07-22T21:45:30.590Z,10.00
2018-07-22T21:51:09.525Z,13.75
2018-07-22T21:53:37.027Z,11.15
2018-07-22T22:20:21.520Z,10.80
2018-07-22T22:22:49.057Z,11.85
2018-07-22T22:25:16.927Z,11.33
2018-07-22T22:27:44.531Z,10.68
2018-07-22T22:30:13.472Z,12.23
2018-07-22T22:32:41.448Z,11.38
2018-07-22T22:35:09.304Z,12.53
2018-07-22T22:37:36.879Z,12.10
2018-07-22T22:40:04.597Z,11.73
2018-07-22T22:42:32.167Z,11.90
2018-07-22T22:44:59.704Z,11.80
2018-07-22T22:47:27.236Z,11.57
2018-07-22T22:50:01.062Z,12.55
2018-07-22T22:52:34.660Z,12.80
2018-07-22T22:55:02.444Z,12.73
2018-07-22T22:57:50.188Z,13.72
2018-07-22T23:00:17.717Z,14.18
2018-07-22T23:02:45.246Z,13.50
2018-07-22T23:05:30.708Z,13.08
2018-07-22T23:07:59.314Z,13.40
2018-07-22T23:10:26.841Z,13.83
2018-07-22T23:12:54.376Z,13.88
2018-07-22T23:15:21.911Z,13.62
2018-07-22T23:21:15.840Z,14.58
2018-07-22T23:23:43.471Z,14.28
2018-07-22T23:26:11.020Z,12.93
2018-07-22T23:28:38.595Z,15.05
2018-07-22T23:31:06.896Z,14.93
2018-07-22T23:33:34.427Z,14.13
2018-07-22T23:36:01.991Z,14.35
2018-07-22T23:38:29.544Z,14.58
2018-07-22T23:40:57.280Z,15.40
2018-07-22T23:43:24.815Z,15.23
2018-07-22T23:45:52.345Z,15.25
2018-07-22T23:48:19.933Z,15.93
2018-07-22T23:50:47.464Z,15.53
2018-07-22T23:53:15.008Z,15.95
2018-07-22T23:55:42.542Z,16.00
2018-07-22T23:58:10.076Z,16.05
